Latest Weather Observations for Sydney - Observatory Hill

IDN60801

Issued at 6:32 pm EDT Friday 12 February 2016 (issued every 30 minutes, with the page automatically refreshed every 10 minutes)

About weather observations | Map of weather stations | Latest weather observations for NSW | Other Formats
Station Details ID: 066062 Name: SYDNEY (OBSERVATORY HILL) Lat: -33.86 Lon: 151.21 Height: 39.0 m
Data from the previous 72 hours. | See also: Recent months at Sydney - Observatory Hill

* Apparent temperature (App Temp) for Sydney - Observatory Hill is calculated using temperature observations collected at Sydney - Observatory Hill and wind observations collected at Fort Denison, as wind observations are not currently provided for Sydney - Observatory Hill.

Date/Time
EDT
Temp
°C
App
Temp
°C
Dew
Point
Rel
Hum
%
Delta-T
°C
Wind Press
QNH
hPa
Press
MSL
hPa
Rain
since 9 am
mm
Dir
 
Spd
km/h
Gust
km/h
Spd
kts
Gust
kts
12/06:30pm 25.9 24.0 19.3 67 4.2 ENE 28 - 15 - 1014.2 1014.1 0.0
12/06:00pm 26.3 25.8 19.2 65 4.6 E 20 - 11 - 1014.1 1014.0 0.0
12/05:30pm 26.5 25.0 18.6 62 5.0 ENE 24 - 13 - 1014.2 1014.1 0.0
12/05:00pm 26.5 25.4 18.6 62 5.0 ENE 22 - 12 - 1014.2 1014.1 0.0
12/04:30pm 27.3 26.4 19.1 61 5.3 ENE 22 - 12 - 1014.3 1014.2 0.0
12/04:00pm 27.7 27.2 18.7 58 5.8 E 19 - 10 - 1014.6 1014.5 0.0
12/03:30pm 27.4 26.8 18.9 59 5.5 E 20 - 11 - 1014.8 1014.7 0.0
12/03:00pm 27.5 26.3 18.5 58 5.8 E 22 - 12 - 1015.2 1015.1 0.0
12/02:30pm 27.3 26.1 18.3 58 5.7 E 22 - 12 - 1015.4 1015.3 0.0
12/02:00pm 27.8 26.3 18.5 57 6.0 E 24 - 13 - 1015.5 1015.4 0.0
12/01:30pm 27.7 26.2 17.8 54 6.3 E 22 - 12 - 1015.6 1015.5 0.0
12/01:00pm 27.8 26.6 17.6 53 6.4 E 20 - 11 - 1016.0 1015.9 0.0
12/12:30pm 28.2 27.5 18.6 56 6.2 E 20 - 11 - 1016.3 1016.2 0.0
12/12:00pm 28.1 27.1 17.9 54 6.5 E 20 - 11 - 1016.5 1016.4 0.0
12/11:30am 27.7 27.0 17.3 53 6.5 E 17 - 9 - 1016.8 1016.7 0.0
12/11:00am 27.2 27.4 16.8 53 6.5 E 11 - 6 - 1017.0 1016.9 0.0
12/10:30am 26.7 27.6 16.6 54 6.3 ESE 7 - 4 - 1017.2 1017.1 0.0
12/10:00am 27.1 29.1 17.8 56 5.9 ESE 4 - 2 - 1017.2 1017.1 0.0
12/09:30am 25.3 26.8 17.7 62 4.8 WSW 6 - 3 - 1017.2 1017.1 0.0
12/09:00am 25.4 26.8 17.8 62 4.8 W 7 - 4 - 1017.1 1017.0 0.0
12/08:30am 23.7 25.6 19.0 75 3.0 W 7 - 4 - 1016.9 1016.8 0.0
12/08:00am 22.4 24.4 19.9 86 1.6 W 9 - 5 - 1016.7 1016.6 0.0
12/07:30am 21.6 23.3 19.3 87 1.5 W 9 - 5 - 1016.3 1016.2 0.0
12/07:00am 21.6 23.4 19.5 88 1.3 W 9 - 5 - 1016.0 1015.9 0.0
12/06:30am 21.6 23.8 19.3 87 1.5 WNW 6 - 3 - 1015.8 1015.7 0.0
12/06:00am 21.7 24.8 19.4 87 1.5 NW 2 - 1 - 1015.4 1015.3 0.0
12/05:30am 21.8 24.4 19.2 85 1.6 NW 4 - 2 - 1015.0 1014.9 0.0
12/05:00am 22.2 25.3 19.4 84 1.8 SW 2 - 1 - 1014.8 1014.7 0.0
12/04:30am 22.5 25.1 19.3 82 2.0 NNW 4 - 2 - 1014.8 1014.7 0.0
12/04:00am 23.1 26.4 19.1 78 2.5 CALM 0 - 0 - 1015.0 1014.9 0.0
12/03:30am 23.4 26.6 18.9 76 2.9 CALM 0 - 0 - 1015.0 1014.9 0.0
12/03:00am 23.6 26.0 18.9 75 3.0 NE 4 - 2 - 1015.1 1015.0 0.0
12/02:30am 23.5 26.3 18.8 75 3.0 WSW 2 - 1 - 1015.5 1015.4 0.0
12/02:00am 23.6 26.3 18.7 74 3.1 NE 2 - 1 - 1015.3 1015.2 0.0
12/01:30am 23.8 25.9 18.9 74 3.1 ENE 6 - 3 - 1015.5 1015.4 0.0
12/01:00am 23.9 25.8 19.0 74 3.1 ENE 7 - 4 - 1015.7 1015.6 0.0
12/12:30am 24.0 24.8 19.1 74 3.1 ENE 13 - 7 - 1015.5 1015.4 0.0
12/12:00am 24.1 25.9 18.7 72 3.4 ESE 7 - 4 - 1016.2 1016.1 0.0
 
Date/Time
EDT
Temp
°C
App
Temp
°C
Dew
Point
Rel
Hum
%
Delta-T
°C
Wind Press
QNH
hPa
Press
MSL
hPa
Rain
since 9 am
mm
Dir
 
Spd
km/h
Gust
km/h
Spd
kts
Gust
kts
11/11:30pm 24.1 24.7 18.7 72 3.4 ENE 13 - 7 - 1016.2 1016.1 0.0
11/11:00pm 24.4 25.0 18.6 70 3.7 ENE 13 - 7 - 1016.2 1016.1 0.0
11/10:30pm 24.5 24.6 18.4 69 3.9 ENE 15 - 8 - 1016.5 1016.4 0.0
11/10:00pm 24.5 24.6 18.4 69 3.9 ENE 15 - 8 - 1016.6 1016.5 0.0
11/09:30pm 24.6 24.2 18.8 70 3.7 ENE 19 - 10 - 1016.0 1015.9 0.0
11/09:00pm 24.6 24.0 18.5 69 3.9 ENE 19 - 10 - 1015.7 1015.6 0.0
11/08:30pm 24.8 23.7 18.7 69 3.9 ENE 22 - 12 - 1015.0 1014.9 0.0
11/08:00pm 24.9 24.3 18.8 69 3.9 ENE 20 - 11 - 1015.2 1015.1 0.0
11/07:30pm 25.0 24.8 18.4 66 4.2 E 17 - 9 - 1014.9 1014.8 0.0
11/07:00pm 25.1 26.2 18.8 68 4.0 E 11 - 6 - 1014.6 1014.5 0.0
11/06:30pm 25.3 24.9 18.0 64 4.6 E 17 - 9 - 1014.0 1013.9 0.0
11/06:00pm 25.5 25.5 18.2 64 4.6 E 15 - 8 - 1013.9 1013.8 0.0
11/05:30pm 25.5 24.7 17.9 63 4.8 E 19 - 10 - 1014.1 1014.0 0.0
11/05:00pm 26.1 26.0 18.8 64 4.7 E 17 - 9 - 1014.0 1013.9 0.0
11/04:30pm 26.0 25.2 18.4 63 4.8 E 20 - 11 - 1013.8 1013.7 0.0
11/04:00pm 26.5 25.6 18.1 60 5.3 E 20 - 11 - 1013.8 1013.7 0.0
11/03:30pm 26.2 24.9 17.3 58 5.6 E 20 - 11 - 1014.0 1013.9 0.0
11/03:00pm 26.7 25.6 17.8 58 5.6 E 20 - 11 - 1014.3 1014.2 0.0
11/02:30pm 26.8 26.0 17.0 55 6.1 E 17 - 9 - 1014.7 1014.6 0.0
11/02:00pm 27.2 26.0 17.1 54 6.3 E 19 - 10 - 1014.8 1014.7 0.0
11/01:30pm 27.8 27.0 17.9 54 6.3 E 19 - 10 - 1014.9 1014.8 0.0
11/01:00pm 27.5 27.0 16.8 52 6.7 E 15 - 8 - 1015.2 1015.1 0.0
11/12:30pm 27.4 26.9 17.0 53 6.5 E 15 - 8 - 1015.5 1015.4 0.0
11/12:00pm 27.5 27.4 18.8 59 5.6 E 17 - 9 - 1015.6 1015.5 0.0
11/11:30am 27.1 27.3 17.6 56 6.0 E 13 - 7 - 1015.7 1015.6 0.0
11/11:00am 26.9 26.6 17.4 56 6.0 E 15 - 8 - 1015.7 1015.6 0.0
11/10:30am 26.8 27.2 18.1 59 5.5 E 13 - 7 - 1015.7 1015.6 0.0
11/10:00am 26.1 25.3 17.2 58 5.6 E 17 - 9 - 1015.7 1015.6 0.0
11/09:30am 25.5 26.6 17.2 60 5.2 ESE 7 - 4 - 1015.8 1015.7 0.0
11/09:00am 24.6 26.1 17.6 65 4.4 WSW 6 - 3 - 1015.9 1015.8 0.0
11/08:30am 23.1 25.0 17.6 71 3.4 W 4 - 2 - 1015.7 1015.6 0.0
11/08:00am 22.0 24.0 18.8 82 2.0 WNW 6 - 3 - 1015.4 1015.3 0.0
11/07:30am 21.4 23.8 18.8 85 1.6 NNW 4 - 2 - 1014.8 1014.7 0.0
11/07:00am 21.3 23.9 18.3 83 1.9 NNW 2 - 1 - 1014.3 1014.2 0.0
11/06:30am 20.8 23.3 18.2 85 1.6 WSW 2 - 1 - 1014.1 1014.0 0.0
11/06:00am 20.8 23.2 18.0 84 1.7 NNW 2 - 1 - 1013.9 1013.8 0.0
11/05:30am 20.8 22.8 17.8 83 1.9 WNW 4 - 2 - 1013.6 1013.5 0.0
11/05:00am 21.0 22.8 17.4 80 2.2 NW 4 - 2 - 1013.3 1013.2 0.0
11/04:30am 21.5 23.7 17.5 78 2.5 NW 2 - 1 - 1013.1 1013.0 0.0
11/04:00am 22.0 23.9 17.6 76 2.7 WNW 4 - 2 - 1013.1 1013.0 0.0
11/03:30am 22.2 24.5 17.6 75 2.8 NNW 2 - 1 - 1013.1 1013.0 0.0
11/03:00am 22.4 24.2 17.5 74 3.0 N 4 - 2 - 1013.3 1013.2 0.0
11/02:30am 22.6 24.1 17.7 74 3.0 NNE 6 - 3 - 1013.5 1013.4 0.0
11/02:00am 22.7 24.1 17.4 72 3.3 NE 6 - 3 - 1013.6 1013.5 0.0
11/01:30am 23.0 23.5 17.5 71 3.4 NNE 11 - 6 - 1013.7 1013.6 0.0
11/01:00am 23.1 23.8 17.1 69 3.7 NNE 9 - 5 - 1013.8 1013.7 0.0
11/12:30am 23.2 23.9 17.0 68 3.8 NE 9 - 5 - 1014.1 1014.0 0.0
11/12:00am 23.4 23.7 16.9 67 4.0 NE 11 - 6 - 1014.1 1014.0 0.0
 
Date/Time
EDT
Temp
°C
App
Temp
°C
Dew
Point
Rel
Hum
%
Delta-T
°C
Wind Press
QNH
hPa
Press
MSL
hPa
Rain
since 9 am
mm
Dir
 
Spd
km/h
Gust
km/h
Spd
kts
Gust
kts
10/11:30pm 23.6 23.2 17.1 67 4.0 NE 15 - 8 - 1014.1 1014.0 0.0
10/11:00pm 23.6 23.4 16.6 65 4.3 NE 13 - 7 - 1014.1 1014.0 0.0
10/10:30pm 23.7 21.8 16.7 65 4.3 NE 22 - 12 - 1014.2 1014.1 0.0
10/10:00pm 23.8 22.5 16.8 65 4.3 NE 19 - 10 - 1014.1 1014.0 0.0
10/09:30pm 23.9 22.8 16.4 63 4.6 NE 17 - 9 - 1013.9 1013.8 0.0
10/09:00pm 24.0 23.1 16.8 64 4.4 NNE 17 - 9 - 1013.8 1013.7 0.0
10/08:30pm 24.1 23.0 17.4 66 4.2 NNE 19 - 10 - 1013.6 1013.5 0.0
10/08:00pm 24.0 22.9 17.7 68 3.9 NE 20 - 11 - 1013.4 1013.3 0.0
10/07:30pm 24.4 23.5 18.1 68 4.0 NNE 20 - 11 - 1013.0 1012.9 0.0
10/07:00pm 24.8 22.8 17.5 64 4.6 NE 24 - 13 - 1012.7 1012.6 0.0
10/06:30pm 25.0 22.7 16.7 60 5.1 NE 24 - 13 - 1012.4 1012.3 0.0
10/06:00pm 25.6 23.4 17.0 59 5.3 NE 24 - 13 - 1012.4 1012.3 0.0
10/05:30pm 26.2 24.0 17.0 57 5.7 NE 24 - 13 - 1012.3 1012.2 0.0
10/05:00pm 26.5 24.5 17.3 57 5.8 ENE 24 - 13 - 1012.3 1012.2 0.0
10/04:30pm 26.8 24.1 16.7 54 6.3 ENE 26 - 14 - 1012.4 1012.3 0.0
10/04:00pm 26.6 24.7 16.8 55 6.1 ENE 22 - 12 - 1012.5 1012.4 0.0
10/03:30pm 27.4 25.8 16.4 51 6.8 ENE 20 - 11 - 1012.8 1012.7 0.0
10/03:00pm 27.6 25.0 14.9 45 7.7 ENE 22 - 12 - 1013.0 1012.9 0.0
10/02:30pm 27.5 25.1 13.8 43 8.2 NE 19 - 10 - 1013.4 1013.3 0.0
10/02:00pm 27.4 24.6 15.4 48 7.3 ENE 24 - 13 - 1013.7 1013.6 0.0
10/01:30pm 27.5 24.1 13.8 43 8.2 ENE 24 - 13 - 1014.2 1014.1 0.0
10/01:00pm 28.1 24.7 14.7 44 8.1 E 26 - 14 - 1014.6 1014.5 0.0
10/12:30pm 28.2 24.8 12.5 37 9.2 E 22 - 12 - 1015.0 1014.9 0.0
10/12:00pm 27.3 25.7 15.0 47 7.4 E 17 - 9 - 1015.3 1015.2 0.0
10/11:30am 27.9 27.9 15.2 46 7.7 NNE 9 - 5 - 1015.6 1015.5 0.0
10/11:00am 25.9 25.5 15.3 52 6.4 N 11 - 6 - 1016.1 1016.0 0.0
10/10:30am 26.5 26.4 17.0 56 5.9 NNW 13 - 7 - 1016.4 1016.3 0.0
10/10:00am 25.0 26.0 17.7 64 4.6 N 9 - 5 - 1016.5 1016.4 0.0
10/09:30am 24.3 24.4 16.6 62 4.7 W 11 - 6 - 1016.7 1016.6 0.0
10/09:00am 23.2 23.5 17.0 68 3.8 W 11 - 6 - 1016.8 1016.7 0.2
10/08:30am 22.4 22.7 17.1 72 3.3 W 11 - 6 - 1016.7 1016.6 0.2
10/08:00am 21.1 21.9 18.1 83 1.9 W 11 - 6 - 1016.6 1016.5 0.2
10/07:30am 20.2 20.8 17.8 86 1.5 WNW 11 - 6 - 1016.5 1016.4 0.2
10/07:00am 19.6 20.1 17.4 87 1.3 W 11 - 6 - 1016.4 1016.3 0.2
10/06:30am 19.7 20.1 17.3 86 1.5 WNW 11 - 6 - 1016.3 1016.2 0.2
10/06:00am 19.9 21.1 17.3 85 1.6 WNW 7 - 4 - 1016.1 1016.0 0.2
10/05:30am 20.2 21.5 17.6 85 1.6 WNW 7 - 4 - 1016.0 1015.9 0.2
10/05:00am 20.5 21.2 17.9 85 1.6 WNW 11 - 6 - 1015.9 1015.8 0.2
10/04:30am 20.6 20.6 18.0 85 1.6 WNW 15 - 8 - 1016.0 1015.9 0.2
10/04:00am 20.5 20.8 17.9 85 1.6 W 13 - 7 - 1016.0 1015.9 0.2
10/03:30am 20.6 21.2 17.8 84 1.7 W 11 - 6 - 1016.2 1016.1 0.2
10/03:00am 20.9 21.9 17.7 82 2.0 WNW 9 - 5 - 1016.6 1016.5 0.2
10/02:30am 21.2 21.5 17.8 81 2.1 WNW 13 - 7 - 1016.9 1016.8 0.2
10/02:00am 21.6 22.7 18.0 80 2.2 W 9 - 5 - 1017.1 1017.0 0.2
10/01:30am 21.6 22.3 18.0 80 2.2 W 11 - 6 - 1017.5 1017.4 0.2
10/01:00am 21.9 24.3 17.9 78 2.5 W 2 - 1 - 1017.9 1017.8 0.2
10/12:30am 22.6 25.0 17.9 75 2.9 W 2 - 1 - 1018.2 1018.1 0.2
10/12:00am 22.9 25.5 17.4 71 3.4 CALM 0 - 0 - 1018.4 1018.3 0.2
 
Date/Time
EDT
Temp
°C
App
Temp
°C
Dew
Point
Rel
Hum
%
Delta-T
°C
Wind Press
QNH
hPa
Press
MSL
hPa
Rain
since 9 am
mm
Dir
 
Spd
km/h
Gust
km/h
Spd
kts
Gust
kts
09/11:30pm 23.0 25.3 17.7 72 3.3 SSW 2 - 1 - 1018.6 1018.5 0.2
09/11:00pm 23.1 25.4 17.6 71 3.4 NE 2 - 1 - 1019.1 1019.0 0.2
09/10:30pm 23.1 25.4 17.6 71 3.4 ENE 2 - 1 - 1019.3 1019.2 0.2
09/10:00pm 23.1 24.5 17.3 70 3.6 SE 6 - 3 - 1019.3 1019.2 0.2
09/09:30pm 23.2 24.0 17.4 70 3.6 ESE 9 - 5 - 1019.2 1019.1 0.2
09/09:00pm 23.3 23.7 17.3 69 3.7 ESE 11 - 6 - 1019.1 1019.0 0.2
09/08:30pm 23.4 23.3 16.9 67 4.0 ESE 13 - 7 - 1019.0 1018.9 0.2
09/08:00pm 23.6 23.0 16.6 65 4.3 ESE 15 - 8 - 1018.9 1018.8 0.2
09/07:30pm 23.9 22.8 16.4 63 4.6 ESE 17 - 9 - 1018.8 1018.7 0.2
09/07:00pm 24.3 23.2 16.3 61 4.9 ESE 17 - 9 - 1018.7 1018.6 0.2

Other Formats:

Comma delimited format used in spreadsheet applications
http://www.bom.gov.au/fwo/IDN60801/IDN60801.94768.axf

JavaScript Object Notation format (JSON) in row-major order
http://www.bom.gov.au/fwo/IDN60801/IDN60801.94768.json